createdAt,value
2019-03-04T00:01:40.169Z,1.30
2019-03-04T00:04:08.665Z,0.80
2019-03-04T00:06:37.124Z,0.90
2019-03-04T00:09:06.563Z,1.07
2019-03-04T00:11:35.071Z,0.90
2019-03-04T00:14:04.568Z,0.72
2019-03-04T00:16:33.041Z,0.93
2019-03-04T00:19:01.605Z,1.35
2019-03-04T00:21:30.055Z,1.00
2019-03-04T00:23:58.552Z,0.70
2019-03-04T00:26:27.140Z,1.10
2019-03-04T00:28:55.657Z,1.27
2019-03-04T00:31:24.089Z,0.98
2019-03-04T00:33:52.686Z,1.00
2019-03-04T00:36:21.180Z,0.98
2019-03-04T00:38:49.725Z,1.25
2019-03-04T00:41:18.182Z,1.10
2019-03-04T00:43:46.602Z,0.80
2019-03-04T00:46:15.126Z,1.25
2019-03-04T00:48:43.578Z,0.93
2019-03-04T00:51:12.127Z,1.00
2019-03-04T00:53:40.765Z,0.90
2019-03-04T00:56:09.232Z,1.02
2019-03-04T00:58:37.688Z,1.00
2019-03-04T01:01:06.276Z,0.90
2019-03-04T01:03:34.738Z,0.78
2019-03-04T01:06:03.539Z,1.15
2019-03-04T01:08:32.250Z,0.85
2019-03-04T01:11:01.082Z,0.70
2019-03-04T01:13:29.527Z,0.80
2019-03-04T01:15:57.987Z,0.55
2019-03-04T01:18:26.441Z,0.53
2019-03-04T01:20:54.960Z,0.50
2019-03-04T01:23:23.367Z,0.60
2019-03-04T01:25:51.921Z,0.68
2019-03-04T01:28:20.703Z,0.60
2019-03-04T01:30:49.132Z,0.62
2019-03-04T01:33:17.575Z,0.72
2019-03-04T01:35:46.037Z,0.60
2019-03-04T01:38:14.542Z,0.50
2019-03-04T01:40:42.978Z,0.93
2019-03-04T01:43:11.488Z,0.50
2019-03-04T01:45:39.917Z,0.80
2019-03-04T01:48:08.359Z,0.50
2019-03-04T01:50:36.835Z,0.50
2019-03-04T01:53:05.257Z,0.60
2019-03-04T01:55:33.987Z,0.72
2019-03-04T01:58:02.465Z,0.50
2019-03-04T02:00:30.881Z,0.50
2019-03-04T02:02:59.455Z,0.70
2019-03-04T02:05:27.996Z,0.50
2019-03-04T02:07:56.450Z,0.95
2019-03-04T02:10:24.957Z,0.70
2019-03-04T02:12:53.404Z,0.60
2019-03-04T02:15:22.230Z,0.88
2019-03-04T02:17:50.674Z,0.80
2019-03-04T02:20:19.261Z,0.60
2019-03-04T02:22:47.716Z,0.53
2019-03-04T02:25:21.418Z,0.72
2019-03-04T02:27:52.820Z,0.55
2019-03-04T02:30:26.831Z,0.30
2019-03-04T02:32:55.340Z,0.40
2019-03-04T02:35:23.784Z,0.40
2019-03-04T02:37:52.249Z,0.60
2019-03-04T02:40:20.684Z,0.40
2019-03-04T02:42:49.411Z,0.70
2019-03-04T02:45:19.193Z,0.33
2019-03-04T02:47:48.111Z,0.40
2019-03-04T02:50:17.120Z,0.50
2019-03-04T02:52:45.828Z,0.40
2019-03-04T02:55:16.330Z,0.50
2019-03-04T02:57:44.845Z,0.45
2019-03-04T03:00:17.916Z,0.50
2019-03-04T03:02:46.410Z,0.50
2019-03-04T03:05:14.900Z,0.65
2019-03-04T03:07:44.165Z,0.40
2019-03-04T03:10:14.423Z,0.70
2019-03-04T03:12:42.940Z,0.40
2019-03-04T03:15:14.217Z,0.30
2019-03-04T03:17:43.229Z,0.62
2019-03-04T03:20:12.909Z,0.62
2019-03-04T03:22:41.519Z,0.70
2019-03-04T03:25:11.468Z,0.57
2019-03-04T03:27:40.095Z,0.50
2019-03-04T03:30:14.800Z,0.70
2019-03-04T03:32:43.234Z,0.42
2019-03-04T03:35:11.935Z,0.60
2019-03-04T03:37:40.543Z,0.55
2019-03-04T03:40:14.682Z,0.47
2019-03-04T03:42:43.165Z,0.70
2019-03-04T03:45:11.958Z,0.60
2019-03-04T03:47:40.580Z,1.10
2019-03-04T03:50:11.935Z,0.47
2019-03-04T03:52:40.449Z,1.22
2019-03-04T03:55:10.952Z,0.50
2019-03-04T03:57:39.465Z,0.50
2019-03-04T04:00:24.394Z,1.17
2019-03-04T04:02:52.885Z,0.57
2019-03-04T04:05:21.428Z,0.50
2019-03-04T04:07:49.979Z,0.60
2019-03-04T04:10:20.729Z,0.55
2019-03-04T04:12:49.538Z,0.53
2019-03-04T04:15:19.416Z,0.60
2019-03-04T04:17:47.853Z,0.70
2019-03-04T04:20:16.361Z,0.50
2019-03-04T04:22:44.873Z,0.75
2019-03-04T04:25:13.723Z,0.40
2019-03-04T04:27:42.267Z,0.50
2019-03-04T04:30:16.764Z,0.42
2019-03-04T04:35:13.152Z,0.30
2019-03-04T04:37:41.663Z,0.37
2019-03-04T04:40:12.229Z,0.78
2019-03-04T04:42:40.693Z,0.88
2019-03-04T04:45:10.164Z,0.50
2019-03-04T04:47:39.359Z,0.80
2019-03-04T04:50:13.487Z,1.30
2019-03-04T04:52:42.040Z,0.72
2019-03-04T04:55:10.570Z,0.72
2019-03-04T04:57:39.058Z,0.70
2019-03-04T05:00:16.312Z,0.60
2019-03-04T05:02:45.409Z,0.90
2019-03-04T05:05:14.300Z,0.72
2019-03-04T05:07:42.815Z,0.65
2019-03-04T05:10:21.914Z,0.70
2019-03-04T05:12:50.404Z,0.75
2019-03-04T05:15:19.080Z,0.72
2019-03-04T05:17:50.533Z,0.55
2019-03-04T05:20:27.032Z,0.45
2019-03-04T05:22:55.561Z,0.40
2019-03-04T05:25:24.032Z,0.60
2019-03-04T05:27:52.530Z,0.40
2019-03-04T05:30:21.972Z,0.30
2019-03-04T05:32:50.408Z,0.40
2019-03-04T05:35:18.943Z,0.50
2019-03-04T05:37:50.424Z,0.68
2019-03-04T05:40:20.073Z,0.70
2019-03-04T05:42:48.625Z,0.88
2019-03-04T05:45:20.626Z,0.50
2019-03-04T05:47:49.225Z,0.60
2019-03-04T05:50:25.178Z,0.68
2019-03-04T05:52:53.759Z,0.80
2019-03-04T05:55:22.274Z,0.70
2019-03-04T05:57:50.796Z,0.60
2019-03-04T06:00:21.635Z,0.60
2019-03-04T06:02:51.716Z,0.60
2019-03-04T06:05:20.150Z,0.30
2019-03-04T06:07:52.944Z,0.50
2019-03-04T06:10:21.516Z,0.40
2019-03-04T06:12:49.998Z,0.30
2019-03-04T06:15:20.381Z,0.30
2019-03-04T06:17:48.884Z,0.50
2019-03-04T06:20:18.882Z,0.55
2019-03-04T06:22:47.668Z,1.00
2019-03-04T06:25:21.677Z,0.37
2019-03-04T06:27:50.137Z,0.70
2019-03-04T06:30:23.535Z,0.55
2019-03-04T06:32:52.113Z,0.68
2019-03-04T06:35:20.534Z,1.10
2019-03-04T06:37:49.035Z,0.85
2019-03-04T06:40:18.705Z,0.70
2019-03-04T06:42:47.221Z,0.85
2019-03-04T06:45:17.854Z,1.10
2019-03-04T06:47:46.421Z,0.50
2019-03-04T06:50:46.968Z,0.70
2019-03-04T06:53:27.443Z,0.80
2019-03-04T06:56:15.405Z,0.55
2019-03-04T06:58:49.529Z,0.75
2019-03-04T07:01:21.400Z,0.93
2019-03-04T07:03:52.436Z,0.90
2019-03-04T07:06:20.959Z,0.80
2019-03-04T07:08:52.429Z,0.75
2019-03-04T07:11:22.040Z,0.60
2019-03-04T07:13:51.047Z,0.95
2019-03-04T07:16:19.505Z,0.82
2019-03-04T07:18:48.051Z,0.90
2019-03-04T07:21:16.614Z,0.62
2019-03-04T07:23:45.085Z,0.60
2019-03-04T07:26:14.063Z,0.80
2019-03-04T07:28:42.517Z,0.80
2019-03-04T07:31:10.965Z,1.27
2019-03-04T07:33:39.440Z,0.88
2019-03-04T07:36:08.204Z,0.40
2019-03-04T07:38:48.458Z,0.80
2019-03-04T07:41:16.897Z,1.10
2019-03-04T07:43:45.349Z,0.85
2019-03-04T07:46:13.815Z,0.85
2019-03-04T07:48:42.277Z,0.70
2019-03-04T07:51:18.557Z,0.57
2019-03-04T07:53:47.162Z,0.85
2019-03-04T07:56:15.617Z,0.60
2019-03-04T07:58:44.134Z,0.70
2019-03-04T08:01:12.571Z,0.90
2019-03-04T08:03:41.130Z,0.70
2019-03-04T08:06:09.693Z,1.15
2019-03-04T08:08:39.259Z,0.90
2019-03-04T08:11:30.781Z,0.65
2019-03-04T08:14:05.280Z,1.17
2019-03-04T08:19:01.826Z,0.60
2019-03-04T08:21:30.287Z,0.85
2019-03-04T08:23:58.745Z,0.98
2019-03-04T08:26:27.432Z,0.70
2019-03-04T08:28:55.887Z,0.47
2019-03-04T08:31:24.335Z,0.42
2019-03-04T08:33:52.764Z,0.45
2019-03-04T08:36:21.222Z,0.70
2019-03-04T08:38:49.692Z,0.60
2019-03-04T08:41:18.140Z,0.50
2019-03-04T08:43:46.594Z,0.33
2019-03-04T08:46:15.625Z,0.33
2019-03-04T08:48:44.059Z,0.30
2019-03-04T08:51:12.500Z,0.42
2019-03-04T08:53:40.947Z,0.40
2019-03-04T08:56:09.372Z,0.37
2019-03-04T08:58:37.834Z,0.30
2019-03-04T09:01:06.381Z,0.30
2019-03-04T09:03:34.925Z,0.30
2019-03-04T09:06:03.364Z,0.30
2019-03-04T09:08:31.801Z,0.65
2019-03-04T09:11:00.250Z,0.45
2019-03-04T09:13:28.824Z,0.50
2019-03-04T09:15:57.539Z,0.70
2019-03-04T09:18:25.977Z,0.50
2019-03-04T09:20:54.477Z,0.40
2019-03-04T09:23:22.908Z,0.40
2019-03-04T09:25:57.227Z,0.40
2019-03-04T09:28:25.687Z,0.35
2019-03-04T09:30:54.137Z,0.40
2019-03-04T09:33:22.596Z,0.50
2019-03-04T09:35:51.089Z,0.60
2019-03-04T09:38:19.498Z,0.57
2019-03-04T09:40:48.023Z,1.37
2019-03-04T09:43:16.845Z,0.78
2019-03-04T09:45:45.349Z,0.98
2019-03-04T09:48:13.803Z,0.80
2019-03-04T09:50:42.262Z,0.50
2019-03-04T09:53:10.720Z,0.53
2019-03-04T09:55:39.171Z,0.50
2019-03-04T09:58:07.601Z,0.60
2019-03-04T10:00:47.958Z,0.42
2019-03-04T10:03:34.612Z,1.00
2019-03-04T10:06:31.508Z,1.15
2019-03-04T10:09:19.564Z,0.53
2019-03-04T10:11:53.850Z,0.62
2019-03-04T10:14:47.682Z,0.68
2019-03-04T10:17:24.870Z,0.65
2019-03-04T10:20:08.129Z,0.90
2019-03-04T10:22:39.649Z,0.60
2019-03-04T10:25:33.919Z,0.70
2019-03-04T10:28:22.223Z,0.63
2019-03-04T10:31:02.787Z,0.70
2019-03-04T10:33:37.478Z,0.68
2019-03-04T10:36:09.002Z,0.50
2019-03-04T10:38:42.915Z,0.82
2019-03-04T10:41:17.330Z,0.45
2019-03-04T10:44:07.199Z,0.55
2019-03-04T10:46:41.287Z,0.62
2019-03-04T10:49:09.747Z,0.30
2019-03-04T10:51:38.222Z,0.68
2019-03-04T10:54:06.654Z,0.80
2019-03-04T10:56:35.085Z,0.75
2019-03-04T10:59:03.563Z,0.75
2019-03-04T11:01:31.986Z,0.65
2019-03-04T11:04:00.442Z,0.70
2019-03-04T11:06:28.878Z,0.50
2019-03-04T11:08:57.400Z,0.80
2019-03-04T11:11:29.804Z,0.55
2019-03-04T11:13:56.001Z,0.40
2019-03-04T11:16:24.722Z,0.30
2019-03-04T11:18:53.200Z,0.50
2019-03-04T11:21:21.632Z,0.90
2019-03-04T11:23:50.449Z,0.70
2019-03-04T11:26:19.273Z,0.50
2019-03-04T11:28:47.735Z,0.70
2019-03-04T11:31:16.180Z,0.42
2019-03-04T11:33:44.725Z,0.80
2019-03-04T11:36:13.190Z,0.50
2019-03-04T11:38:47.034Z,0.98
2019-03-04T11:41:21.063Z,1.12
2019-03-04T11:43:49.489Z,0.90
2019-03-04T11:46:19.590Z,0.62
2019-03-04T11:48:48.031Z,0.70
2019-03-04T11:51:16.493Z,0.70
2019-03-04T11:53:44.931Z,0.60
2019-03-04T11:56:13.925Z,0.60
2019-03-04T11:58:42.687Z,0.85
2019-03-04T12:01:22.005Z,0.50
2019-03-04T12:03:50.570Z,0.70
2019-03-04T12:06:19.098Z,0.60
2019-03-04T12:08:47.549Z,0.30
2019-03-04T12:11:16.008Z,0.55
2019-03-04T12:13:44.438Z,0.65
2019-03-04T12:16:13.006Z,0.57
2019-03-04T12:18:41.449Z,0.40
2019-03-04T12:21:09.871Z,1.05
2019-03-04T12:23:38.677Z,0.78
2019-03-04T12:26:07.189Z,0.50
2019-03-04T12:28:35.619Z,0.55
2019-03-04T12:31:04.610Z,0.40
2019-03-04T12:33:33.407Z,0.60
2019-03-04T12:36:01.857Z,0.45
2019-03-04T12:38:30.303Z,0.60
2019-03-04T12:40:58.765Z,0.82
2019-03-04T12:43:27.241Z,0.40
2019-03-04T12:45:55.672Z,0.50
2019-03-04T12:48:24.137Z,0.50
2019-03-04T12:50:52.628Z,0.35
2019-03-04T12:53:21.062Z,0.47
2019-03-04T12:55:49.510Z,0.55
2019-03-04T12:58:17.987Z,0.40
2019-03-04T13:00:46.404Z,0.35
2019-03-04T13:03:20.522Z,0.25
2019-03-04T13:05:48.956Z,0.30
2019-03-04T13:08:17.886Z,0.35
2019-03-04T13:10:46.405Z,0.60
2019-03-04T13:13:14.960Z,0.20
2019-03-04T13:15:43.411Z,0.10
2019-03-04T13:18:13.489Z,0.30
2019-03-04T13:20:42.163Z,0.20
2019-03-04T13:23:10.853Z,0.25
2019-03-04T13:25:39.301Z,0.40
2019-03-04T13:28:08.757Z,0.20
2019-03-04T13:30:41.901Z,0.40
2019-03-04T13:33:10.778Z,0.30
2019-03-04T13:35:44.157Z,0.20
2019-03-04T13:38:12.866Z,0.40
2019-03-04T13:40:41.297Z,0.47
2019-03-04T13:43:09.792Z,0.62
2019-03-04T13:45:38.599Z,0.40
2019-03-04T13:48:07.123Z,0.30
2019-03-04T13:50:37.720Z,0.47
2019-03-04T13:53:06.645Z,0.35
2019-03-04T13:55:35.163Z,0.65
2019-03-04T13:58:03.849Z,0.50
2019-03-04T14:00:42.945Z,0.30
2019-03-04T14:03:13.503Z,0.70
2019-03-04T14:05:42.276Z,0.60
2019-03-04T14:08:10.693Z,0.53
2019-03-04T14:10:47.008Z,0.50
2019-03-04T14:13:15.453Z,0.53
2019-03-04T14:15:45.600Z,0.60
2019-03-04T14:18:14.019Z,0.95
2019-03-04T14:20:42.465Z,0.98
2019-03-04T14:23:11.021Z,0.60
2019-03-04T14:25:39.549Z,0.78
2019-03-04T14:28:08.435Z,1.15
2019-03-04T14:30:36.878Z,0.90
2019-03-04T14:33:05.315Z,0.90
2019-03-04T14:35:34.314Z,0.95
2019-03-04T14:38:02.788Z,1.10
2019-03-04T14:40:31.247Z,0.80
2019-03-04T14:42:59.648Z,0.70
2019-03-04T14:45:28.911Z,1.15
2019-03-04T14:47:57.349Z,1.00
2019-03-04T14:50:25.983Z,1.00
2019-03-04T14:52:54.397Z,0.98
2019-03-04T14:55:27.854Z,1.20
2019-03-04T14:57:56.306Z,1.27
2019-03-04T15:00:28.850Z,1.10
2019-03-04T15:02:57.414Z,0.70
2019-03-04T15:05:25.936Z,0.70
2019-03-04T15:07:55.694Z,1.40
2019-03-04T15:10:24.340Z,1.65
2019-03-04T15:12:52.893Z,0.68
2019-03-04T15:15:23.509Z,1.30
2019-03-04T15:17:51.934Z,1.10
2019-03-04T15:20:25.507Z,1.30
2019-03-04T15:22:53.951Z,1.30
2019-03-04T15:25:25.664Z,0.70
2019-03-04T15:27:55.704Z,1.12
2019-03-04T15:30:24.142Z,0.80
2019-03-04T15:32:52.588Z,0.75
2019-03-04T15:35:21.246Z,0.95
2019-03-04T15:37:49.764Z,1.37
2019-03-04T15:40:18.218Z,1.00
2019-03-04T15:42:46.802Z,0.90
2019-03-04T15:45:15.376Z,1.20
2019-03-04T15:47:44.199Z,1.25
2019-03-04T15:50:12.623Z,0.90
2019-03-04T15:52:41.181Z,0.98
2019-03-04T15:55:11.250Z,0.80
2019-03-04T15:57:39.762Z,1.37
2019-03-04T16:00:15.925Z,0.85
2019-03-04T16:02:44.806Z,1.10
2019-03-04T16:05:14.826Z,0.90
2019-03-04T16:07:43.415Z,1.30
2019-03-04T16:10:23.645Z,0.80
2019-03-04T16:12:52.155Z,1.00
2019-03-04T16:15:21.371Z,0.90
2019-03-04T16:17:49.935Z,1.00
2019-03-04T16:20:19.906Z,1.30
2019-03-04T16:22:49.559Z,0.80
2019-03-04T16:25:17.996Z,1.50
2019-03-04T16:27:49.282Z,1.25
2019-03-04T16:30:22.026Z,1.70
2019-03-04T16:32:50.824Z,1.22
2019-03-04T16:35:20.099Z,1.02
2019-03-04T16:37:48.738Z,0.70
2019-03-04T16:40:21.469Z,1.45
2019-03-04T16:42:50.000Z,1.20
2019-03-04T16:45:20.655Z,1.25
2019-03-04T16:47:50.211Z,1.85
2019-03-04T16:50:30.726Z,1.20
2019-03-04T16:53:01.876Z,1.12
2019-03-04T16:55:30.302Z,0.90
2019-03-04T16:57:58.763Z,1.72
2019-03-04T17:00:27.592Z,1.25
2019-03-04T17:02:56.012Z,1.52
2019-03-04T17:05:24.799Z,1.57
2019-03-04T17:07:53.313Z,1.50
2019-03-04T17:10:26.799Z,1.05
2019-03-04T17:12:57.213Z,1.02
2019-03-04T17:15:25.915Z,1.65
2019-03-04T17:17:54.418Z,1.30
2019-03-04T17:20:22.875Z,1.57
2019-03-04T17:22:51.377Z,1.62
2019-03-04T17:25:21.551Z,1.10
2019-03-04T17:27:50.626Z,1.02
2019-03-04T17:30:22.743Z,1.60
2019-03-04T17:32:51.192Z,1.20
2019-03-04T17:35:20.949Z,1.40
2019-03-04T17:37:49.491Z,1.25
2019-03-04T17:40:20.102Z,1.72
2019-03-04T17:42:48.704Z,1.10
2019-03-04T17:45:24.198Z,1.57
2019-03-04T17:47:52.576Z,1.20
2019-03-04T17:50:33.213Z,1.40
2019-03-04T17:53:02.601Z,1.75
2019-03-04T17:55:31.582Z,2.05
2019-03-04T17:58:00.197Z,1.02
2019-03-04T18:00:29.148Z,1.05
2019-03-04T18:02:57.720Z,1.37
2019-03-04T18:05:26.208Z,1.50
2019-03-04T18:07:54.826Z,1.55
2019-03-04T18:10:23.381Z,1.37
2019-03-04T18:12:53.667Z,1.50
2019-03-04T18:15:26.925Z,1.20
2019-03-04T18:17:55.524Z,1.80
2019-03-04T18:20:31.177Z,1.80
2019-03-04T18:22:54.414Z,0.90
2019-03-04T18:25:34.256Z,1.05
2019-03-04T18:28:05.882Z,1.10
2019-03-04T18:30:55.892Z,1.25
2019-03-04T18:33:47.268Z,1.42
2019-03-04T18:36:38.968Z,0.98
2019-03-04T18:39:26.870Z,1.00
2019-03-04T18:42:14.572Z,1.57
2019-03-04T18:44:51.594Z,1.10
2019-03-04T18:47:23.143Z,1.50
2019-03-04T18:49:51.593Z,1.00
2019-03-04T18:52:20.075Z,1.52
2019-03-04T18:54:48.586Z,1.40
2019-03-04T18:57:17.265Z,1.30
2019-03-04T18:59:45.756Z,0.90
2019-03-04T19:02:14.362Z,2.08
2019-03-04T19:04:42.984Z,1.05
2019-03-04T19:07:11.417Z,1.30
2019-03-04T19:09:40.040Z,0.90
2019-03-04T19:12:08.473Z,1.72
2019-03-04T19:14:37.026Z,1.50
2019-03-04T19:17:07.776Z,1.95
2019-03-04T19:19:35.669Z,1.60
2019-03-04T19:22:04.204Z,1.75
2019-03-04T19:24:32.644Z,2.60
2019-03-04T19:27:01.100Z,1.95
2019-03-04T19:29:29.516Z,1.70
2019-03-04T19:31:58.850Z,1.72
2019-03-04T19:34:27.330Z,1.32
2019-03-04T19:36:55.808Z,1.55
2019-03-04T19:39:24.323Z,1.75
2019-03-04T19:41:52.769Z,1.67
2019-03-04T19:44:21.343Z,1.27
2019-03-04T19:46:49.829Z,1.42
2019-03-04T19:49:18.339Z,1.55
2019-03-04T19:51:47.003Z,1.35
2019-03-04T19:54:15.551Z,1.57
2019-03-04T19:56:44.018Z,2.20
2019-03-04T19:59:12.466Z,1.60
2019-03-04T20:01:40.937Z,2.15
2019-03-04T20:04:09.401Z,2.27
2019-03-04T20:06:37.956Z,2.35
2019-03-04T20:09:08.891Z,1.77
2019-03-04T20:11:37.369Z,1.57
2019-03-04T20:14:05.970Z,1.82
2019-03-04T20:16:34.832Z,1.82
2019-03-04T20:19:03.266Z,1.92
2019-03-04T20:21:31.710Z,2.22
2019-03-04T20:24:00.381Z,2.33
2019-03-04T20:26:28.986Z,1.82
2019-03-04T20:28:57.412Z,1.70
2019-03-04T20:31:25.879Z,1.90
2019-03-04T20:33:54.314Z,2.05
2019-03-04T20:36:23.004Z,2.50
2019-03-04T20:38:51.431Z,1.87
2019-03-04T20:41:20.100Z,1.60
2019-03-04T20:43:48.692Z,1.52
2019-03-04T20:46:17.190Z,1.70
2019-03-04T20:48:45.634Z,1.90
2019-03-04T20:51:14.087Z,1.77
2019-03-04T20:53:42.602Z,1.20
2019-03-04T20:56:11.040Z,2.02
2019-03-04T20:58:39.494Z,1.22
2019-03-04T21:01:07.946Z,1.30
2019-03-04T21:03:38.535Z,1.80
2019-03-04T21:06:06.716Z,1.80
2019-03-04T21:08:35.146Z,1.10
2019-03-04T21:11:04.090Z,1.02
2019-03-04T21:13:35.834Z,1.95
2019-03-04T21:16:02.842Z,1.30
2019-03-04T21:18:31.292Z,1.00
2019-03-04T21:21:00.057Z,1.50
2019-03-04T21:23:28.555Z,1.27
2019-03-04T21:25:59.814Z,1.00
2019-03-04T21:28:40.148Z,1.60
2019-03-04T21:31:14.413Z,1.40
2019-03-04T21:34:06.980Z,1.30
2019-03-04T21:37:00.009Z,1.20
2019-03-04T21:39:36.120Z,1.90
2019-03-04T21:42:16.581Z,1.25
2019-03-04T21:44:48.061Z,1.45
2019-03-04T21:47:22.295Z,1.82
2019-03-04T21:49:52.148Z,1.80
2019-03-04T21:52:30.045Z,1.37
2019-03-04T21:54:58.512Z,2.60
2019-03-04T21:57:30.021Z,2.37
2019-03-04T21:59:58.820Z,2.25
2019-03-04T22:02:33.430Z,2.02
2019-03-04T22:07:31.652Z,1.57
2019-03-04T22:10:00.442Z,1.80
2019-03-04T22:12:29.356Z,2.20
2019-03-04T22:14:57.843Z,1.75
2019-03-04T22:17:26.530Z,1.85
2019-03-04T22:19:54.981Z,1.70
2019-03-04T22:22:23.570Z,1.47
2019-03-04T22:24:52.120Z,1.90
2019-03-04T22:27:20.663Z,1.32
2019-03-04T22:29:49.206Z,1.70
2019-03-04T22:32:18.082Z,1.52
2019-03-04T22:34:46.995Z,1.20
2019-03-04T22:37:15.457Z,1.12
2019-03-04T22:39:43.908Z,2.25
2019-03-04T22:42:12.361Z,1.72
2019-03-04T22:44:40.922Z,1.52
2019-03-04T22:47:09.409Z,1.32
2019-03-04T22:49:37.875Z,1.50
2019-03-04T22:52:06.524Z,1.42
2019-03-04T22:54:35.074Z,1.92
2019-03-04T22:57:03.662Z,1.90
2019-03-04T22:59:32.120Z,2.10
2019-03-04T23:02:00.870Z,1.10
2019-03-04T23:04:29.362Z,1.60
2019-03-04T23:07:06.187Z,1.95
2019-03-04T23:09:49.548Z,1.25
2019-03-04T23:12:21.047Z,1.37
2019-03-04T23:14:49.929Z,1.30
2019-03-04T23:17:18.378Z,1.50
2019-03-04T23:19:46.812Z,2.00
2019-03-04T23:22:15.254Z,1.10
2019-03-04T23:24:43.729Z,1.47
2019-03-04T23:27:12.855Z,1.47
2019-03-04T23:29:41.365Z,1.00
2019-03-04T23:32:10.380Z,1.25
2019-03-04T23:34:38.821Z,1.67
2019-03-04T23:37:07.345Z,1.45
2019-03-04T23:39:35.782Z,1.77
2019-03-04T23:42:04.241Z,1.05
2019-03-04T23:44:32.703Z,1.55
2019-03-04T23:47:01.494Z,1.05
2019-03-04T23:49:29.878Z,2.20
2019-03-04T23:51:58.340Z,2.15
2019-03-04T23:54:26.761Z,2.35
2019-03-04T23:56:55.188Z,1.55
2019-03-04T23:59:23.645Z,1.85
